createdAt,value
2023-03-18T00:01:51.848Z,10.32
2023-03-18T00:06:53.416Z,4.70
2023-03-18T00:11:56.622Z,6.88
2023-03-18T00:16:58.008Z,4.88
2023-03-18T00:21:59.707Z,7.25
2023-03-18T00:27:01.163Z,6.80
2023-03-18T00:32:02.678Z,7.05
2023-03-18T00:37:04.080Z,6.47
2023-03-18T00:42:10.673Z,5.18
2023-03-18T00:47:12.133Z,7.20
2023-03-18T00:52:13.650Z,8.45
2023-03-18T00:57:15.064Z,6.88
2023-03-18T01:02:17.125Z,5.88
2023-03-18T01:07:19.491Z,7.18
2023-03-18T01:12:21.291Z,5.88
2023-03-18T01:17:22.780Z,10.70
2023-03-18T01:22:24.398Z,8.73
2023-03-18T01:27:27.050Z,5.22
2023-03-18T01:32:28.931Z,8.85
2023-03-18T01:37:31.557Z,13.93
2023-03-18T01:42:33.251Z,6.25
2023-03-18T01:47:35.147Z,8.25
2023-03-18T01:52:37.191Z,4.95
2023-03-18T01:57:38.791Z,7.57
2023-03-18T02:02:42.412Z,8.25
2023-03-18T02:07:45.694Z,9.07
2023-03-18T02:12:52.526Z,5.10
2023-03-18T02:17:59.633Z,6.57
2023-03-18T02:23:29.160Z,7.90
2023-03-18T02:28:33.445Z,6.22
2023-03-18T02:33:38.901Z,9.15
2023-03-18T02:38:44.544Z,8.73
2023-03-18T02:43:46.866Z,6.40
2023-03-18T02:48:48.932Z,7.13
2023-03-18T02:53:51.702Z,5.60
2023-03-18T02:58:53.133Z,5.93
2023-03-18T03:03:54.880Z,9.23
2023-03-18T03:08:57.395Z,10.45
2023-03-18T03:13:58.924Z,11.50
2023-03-18T03:19:00.305Z,8.68
2023-03-18T03:24:06.346Z,6.60
2023-03-18T03:29:07.829Z,16.13
2023-03-18T03:34:09.371Z,11.02
2023-03-18T03:39:10.763Z,7.90
2023-03-18T03:44:12.160Z,2.95
2023-03-18T03:49:13.531Z,4.05
2023-03-18T03:54:15.374Z,3.95
2023-03-18T03:59:16.903Z,2.88
2023-03-18T04:04:18.370Z,4.13
2023-03-18T04:09:19.936Z,4.63
2023-03-18T04:14:21.341Z,3.45
2023-03-18T04:19:22.760Z,3.90
2023-03-18T04:24:24.241Z,6.05
2023-03-18T04:29:27.750Z,3.83
2023-03-18T04:34:29.390Z,2.17
2023-03-18T04:39:30.834Z,3.30
2023-03-18T04:44:32.236Z,3.55
2023-03-18T04:49:34.565Z,3.28
2023-03-18T04:54:37.294Z,6.80
2023-03-18T04:59:38.838Z,10.90
2023-03-18T05:04:40.280Z,6.93
2023-03-18T05:09:42.458Z,4.75
2023-03-18T05:14:44.952Z,5.60
2023-03-18T05:19:48.310Z,4.63
2023-03-18T05:24:50.478Z,5.65
2023-03-18T05:29:52.961Z,3.75
2023-03-18T05:34:54.359Z,4.25
2023-03-18T05:39:55.883Z,6.55
2023-03-18T05:44:57.980Z,7.45
2023-03-18T05:49:59.946Z,7.05
2023-03-18T05:55:02.322Z,4.15
2023-03-18T06:00:04.499Z,5.22
2023-03-18T06:05:06.313Z,6.60
2023-03-18T06:10:08.840Z,5.68
2023-03-18T06:15:11.902Z,4.57
2023-03-18T06:20:15.660Z,3.13
2023-03-18T06:25:20.072Z,8.63
2023-03-18T06:30:22.101Z,5.65
2023-03-18T06:35:26.586Z,4.72
2023-03-18T06:40:28.570Z,7.00
2023-03-18T06:45:30.209Z,3.35
2023-03-18T06:50:32.331Z,5.55
2023-03-18T06:55:34.884Z,4.72
2023-03-18T07:00:36.526Z,4.78
2023-03-18T07:05:38.607Z,5.80
2023-03-18T07:10:40.830Z,6.65
2023-03-18T07:15:42.899Z,7.30
2023-03-18T07:20:44.762Z,4.10
2023-03-18T07:25:46.322Z,3.50
2023-03-18T07:30:47.996Z,3.50
2023-03-18T07:35:50.048Z,3.13
2023-03-18T07:40:51.475Z,3.42
2023-03-18T07:45:52.975Z,3.55
2023-03-18T07:50:54.428Z,1.77
2023-03-18T07:55:56.085Z,3.08
2023-03-18T08:00:57.788Z,3.50
2023-03-18T08:05:59.342Z,4.25
2023-03-18T08:11:02.432Z,4.13
2023-03-18T08:16:04.237Z,3.28
2023-03-18T08:21:06.100Z,3.05
2023-03-18T08:26:07.715Z,4.68
2023-03-18T08:31:09.537Z,3.05
2023-03-18T08:36:12.038Z,1.60
2023-03-18T08:41:14.479Z,1.27
2023-03-18T08:46:16.008Z,4.35
2023-03-18T08:51:17.490Z,3.53
2023-03-18T08:56:18.887Z,1.58
2023-03-18T09:01:22.307Z,3.20
2023-03-18T09:06:23.743Z,3.35
2023-03-18T09:11:25.400Z,1.40
2023-03-18T09:16:27.032Z,3.70
2023-03-18T09:21:28.512Z,1.85
2023-03-18T09:26:30.127Z,5.47
2023-03-18T09:31:31.707Z,2.50
2023-03-18T09:36:33.828Z,3.97
2023-03-18T09:42:03.407Z,2.97
2023-03-18T09:47:22.452Z,3.60
2023-03-18T09:52:37.912Z,2.07
2023-03-18T09:57:44.106Z,3.50
2023-03-18T10:02:53.266Z,2.55
2023-03-18T10:07:59.401Z,2.33
2023-03-18T10:13:11.323Z,3.40
2023-03-18T10:18:29.413Z,2.05
2023-03-18T10:23:31.002Z,2.42
2023-03-18T10:28:35.707Z,3.25
2023-03-18T10:33:47.770Z,2.22
2023-03-18T10:38:51.773Z,2.78
2023-03-18T10:43:55.236Z,3.60
2023-03-18T10:49:06.305Z,3.30
2023-03-18T10:54:22.995Z,1.95
2023-03-18T10:59:26.488Z,1.58
2023-03-18T11:04:31.982Z,1.63
2023-03-18T11:09:39.480Z,4.78
2023-03-18T11:14:42.239Z,4.18
2023-03-18T11:19:49.287Z,1.55
2023-03-18T11:25:13.818Z,3.08
2023-03-18T11:30:33.637Z,2.45
2023-03-18T11:35:54.126Z,2.13
2023-03-18T11:41:16.975Z,1.50
2023-03-18T11:46:18.838Z,4.28
2023-03-18T11:51:40.860Z,3.55
2023-03-18T11:56:49.769Z,2.45
2023-03-18T12:02:12.582Z,4.60
2023-03-18T12:07:44.915Z,2.28
2023-03-18T12:13:03.517Z,3.72
2023-03-18T12:18:14.536Z,3.28
2023-03-18T12:23:39.783Z,1.88
2023-03-18T12:29:01.636Z,2.63
2023-03-18T12:34:04.397Z,3.35
2023-03-18T12:39:37.078Z,2.42
2023-03-18T12:44:47.870Z,2.20
2023-03-18T12:49:54.829Z,6.18
2023-03-18T12:55:05.988Z,1.75
2023-03-18T13:00:19.157Z,1.55
2023-03-18T13:05:43.067Z,1.02
2023-03-18T13:10:50.051Z,1.90
2023-03-18T13:15:52.984Z,5.65
2023-03-18T13:21:16.114Z,2.33
2023-03-18T13:26:41.824Z,2.70
2023-03-18T13:32:15.660Z,2.85
2023-03-18T13:37:36.020Z,3.40
2023-03-18T13:42:40.170Z,3.17
2023-03-18T13:47:44.307Z,0.68
2023-03-18T13:52:47.973Z,1.33
2023-03-18T13:57:57.373Z,2.42
2023-03-18T14:03:19.384Z,4.05
2023-03-18T14:08:34.152Z,2.53
2023-03-18T14:13:36.107Z,1.63
2023-03-18T14:18:38.509Z,4.57
2023-03-18T14:23:44.448Z,3.13
2023-03-18T14:28:55.512Z,7.72
2023-03-18T14:34:03.912Z,1.90
2023-03-18T14:39:07.338Z,2.92
2023-03-18T14:44:20.834Z,2.05
2023-03-18T14:49:39.409Z,3.30
2023-03-18T14:54:43.705Z,1.95
2023-03-18T14:59:45.145Z,5.53
2023-03-18T15:04:53.227Z,3.58
2023-03-18T15:09:55.084Z,5.63
2023-03-18T15:14:56.947Z,3.83
2023-03-18T15:20:00.289Z,3.45
2023-03-18T15:25:04.637Z,4.20
2023-03-18T15:30:07.638Z,2.65
2023-03-18T15:35:36.179Z,4.05
2023-03-18T15:40:52.757Z,3.05
2023-03-18T15:46:00.165Z,3.78
2023-03-18T15:51:04.954Z,7.53
2023-03-18T15:56:26.782Z,3.25
2023-03-18T16:01:28.751Z,1.65
2023-03-18T16:06:34.286Z,2.13
2023-03-18T16:11:36.928Z,3.25
2023-03-18T16:16:38.502Z,2.75
2023-03-18T16:21:41.697Z,6.88
2023-03-18T16:26:43.310Z,3.28
2023-03-18T16:31:46.182Z,2.15
2023-03-18T16:36:50.592Z,6.63
2023-03-18T16:41:52.626Z,6.97
2023-03-18T16:46:56.819Z,4.22
2023-03-18T16:51:59.047Z,1.15
2023-03-18T16:57:04.354Z,4.03
2023-03-18T17:02:25.202Z,2.25
2023-03-18T17:07:28.436Z,2.42
2023-03-18T17:12:30.710Z,5.40
2023-03-18T17:17:35.890Z,9.93
2023-03-18T17:22:37.805Z,3.58
2023-03-18T17:27:50.831Z,6.20
2023-03-18T17:32:52.478Z,9.40
2023-03-18T17:37:54.782Z,8.43
2023-03-18T17:42:56.703Z,12.02
2023-03-18T17:48:14.938Z,3.95
2023-03-18T17:53:28.214Z,3.72
2023-03-18T17:58:32.097Z,3.42
2023-03-18T18:03:36.233Z,9.52
2023-03-18T18:08:37.648Z,5.70
2023-03-18T18:13:40.025Z,4.10
2023-03-18T18:18:41.652Z,11.18
2023-03-18T18:23:45.635Z,20.63
2023-03-18T18:28:49.861Z,15.55
2023-03-18T18:33:52.398Z,8.43
2023-03-18T18:38:55.117Z,6.28
2023-03-18T18:43:56.698Z,6.15
2023-03-18T18:48:58.442Z,7.13
2023-03-18T18:54:00.035Z,9.43
2023-03-18T18:59:05.118Z,5.35
2023-03-18T19:04:13.767Z,12.00
2023-03-18T19:09:21.018Z,14.05
2023-03-18T19:14:25.367Z,12.55
2023-03-18T19:19:34.372Z,11.82
2023-03-18T19:24:36.977Z,23.45
2023-03-18T19:29:38.559Z,17.73
2023-03-18T19:34:40.117Z,16.98
2023-03-18T19:39:42.784Z,11.27
2023-03-18T19:44:46.272Z,9.73
2023-03-18T19:49:47.849Z,9.98
2023-03-18T19:54:50.461Z,10.43
2023-03-18T19:59:53.996Z,8.05
2023-03-18T20:04:58.239Z,13.65
2023-03-18T20:09:59.660Z,14.20
2023-03-18T20:15:01.184Z,10.70
2023-03-18T20:20:02.710Z,12.63
2023-03-18T20:25:06.634Z,15.88
2023-03-18T20:30:21.969Z,6.75
2023-03-18T20:35:28.821Z,11.43
2023-03-18T20:40:31.288Z,10.13
2023-03-18T20:45:33.061Z,10.43
2023-03-18T20:50:35.004Z,10.63
2023-03-18T20:55:36.504Z,10.88
2023-03-18T21:00:38.718Z,7.72
2023-03-18T21:05:40.136Z,10.32
2023-03-18T21:10:42.401Z,10.50
2023-03-18T21:15:43.865Z,9.85
2023-03-18T21:20:45.540Z,10.70
2023-03-18T21:25:47.401Z,12.43
2023-03-18T21:30:52.500Z,12.32
2023-03-18T21:35:57.265Z,9.68
2023-03-18T21:41:00.719Z,7.00
2023-03-18T21:46:05.384Z,7.07
2023-03-18T21:51:09.461Z,7.88
2023-03-18T21:56:11.191Z,8.07
2023-03-18T22:01:19.233Z,8.82
2023-03-18T22:06:21.991Z,7.80
2023-03-18T22:11:23.700Z,8.02
2023-03-18T22:16:25.370Z,10.45
2023-03-18T22:21:28.520Z,10.48
2023-03-18T22:26:29.975Z,9.05
2023-03-18T22:31:31.566Z,9.10
2023-03-18T22:36:33.098Z,10.98
2023-03-18T22:41:34.490Z,10.23
2023-03-18T22:46:36.135Z,8.48
2023-03-18T22:51:39.804Z,8.38
2023-03-18T22:56:42.154Z,5.35
2023-03-18T23:01:43.765Z,8.52
2023-03-18T23:06:46.105Z,13.77
2023-03-18T23:11:47.610Z,9.07
2023-03-18T23:16:49.126Z,10.02
2023-03-18T23:21:50.639Z,12.43
2023-03-18T23:26:52.044Z,13.70
2023-03-18T23:31:53.511Z,12.70
2023-03-18T23:36:54.978Z,8.85
2023-03-18T23:41:56.587Z,7.20
2023-03-18T23:46:58.131Z,10.02
2023-03-18T23:52:01.232Z,8.75
2023-03-18T23:57:04.137Z,10.93
